sensor_id;sensor_type;location;lat;lon;timestamp;P1;durP1;ratioP1;P2;durP2;ratioP2
4694;SDS011;2361;49.540;8.390;2024-01-30T00:01:04;34.10;;;17.33;;
4694;SDS011;2361;49.540;8.390;2024-01-30T00:03:26;33.45;;;18.10;;
4694;SDS011;2361;49.540;8.390;2024-01-30T00:05:48;33.08;;;17.35;;
4694;SDS011;2361;49.540;8.390;2024-01-30T00:08:10;33.28;;;17.15;;
4694;SDS011;2361;49.540;8.390;2024-01-30T00:10:32;32.03;;;17.73;;
4694;SDS011;2361;49.540;8.390;2024-01-30T00:12:54;31.83;;;17.30;;
4694;SDS011;2361;49.540;8.390;2024-01-30T00:15:16;32.28;;;18.00;;
4694;SDS011;2361;49.540;8.390;2024-01-30T00:17:39;30.65;;;17.42;;
4694;SDS011;2361;49.540;8.390;2024-01-30T00:20:01;30.92;;;17.10;;
4694;SDS011;2361;49.540;8.390;2024-01-30T00:22:26;30.67;;;17.27;;
4694;SDS011;2361;49.540;8.390;2024-01-30T00:24:51;29.58;;;17.23;;
4694;SDS011;2361;49.540;8.390;2024-01-30T00:27:13;29.05;;;16.40;;
4694;SDS011;2361;49.540;8.390;2024-01-30T00:29:35;29.75;;;16.60;;
4694;SDS011;2361;49.540;8.390;2024-01-30T00:31:57;30.95;;;15.93;;
4694;SDS011;2361;49.540;8.390;2024-01-30T00:34:19;30.95;;;16.65;;
4694;SDS011;2361;49.540;8.390;2024-01-30T00:36:41;29.02;;;16.45;;
4694;SDS011;2361;49.540;8.390;2024-01-30T00:39:03;30.00;;;16.10;;
4694;SDS011;2361;49.540;8.390;2024-01-30T00:41:30;27.33;;;15.75;;
4694;SDS011;2361;49.540;8.390;2024-01-30T00:43:52;30.40;;;15.75;;
4694;SDS011;2361;49.540;8.390;2024-01-30T00:46:14;29.38;;;15.98;;
4694;SDS011;2361;49.540;8.390;2024-01-30T00:48:36;28.98;;;14.90;;
4694;SDS011;2361;49.540;8.390;2024-01-30T00:50:58;25.38;;;14.68;;
4694;SDS011;2361;49.540;8.390;2024-01-30T00:53:19;26.88;;;14.43;;
4694;SDS011;2361;49.540;8.390;2024-01-30T00:55:41;26.25;;;14.65;;
4694;SDS011;2361;49.540;8.390;2024-01-30T00:58:04;26.80;;;14.60;;
4694;SDS011;2361;49.540;8.390;2024-01-30T01:00:27;24.05;;;13.40;;
4694;SDS011;2361;49.540;8.390;2024-01-30T01:02:50;23.60;;;13.77;;
4694;SDS011;2361;49.540;8.390;2024-01-30T01:05:12;24.38;;;13.30;;
4694;SDS011;2361;49.540;8.390;2024-01-30T01:07:34;20.95;;;12.70;;
4694;SDS011;2361;49.540;8.390;2024-01-30T01:09:57;22.33;;;12.88;;
4694;SDS011;2361;49.540;8.390;2024-01-30T01:12:19;20.67;;;12.02;;
4694;SDS011;2361;49.540;8.390;2024-01-30T01:14:41;21.73;;;13.10;;
4694;SDS011;2361;49.540;8.390;2024-01-30T01:17:03;21.73;;;12.80;;
4694;SDS011;2361;49.540;8.390;2024-01-30T01:19:25;22.65;;;12.65;;
4694;SDS011;2361;49.540;8.390;2024-01-30T01:21:47;22.65;;;12.43;;
4694;SDS011;2361;49.540;8.390;2024-01-30T01:24:09;23.33;;;12.80;;
4694;SDS011;2361;49.540;8.390;2024-01-30T01:26:30;22.48;;;13.07;;
4694;SDS011;2361;49.540;8.390;2024-01-30T01:28:52;19.63;;;11.50;;
4694;SDS011;2361;49.540;8.390;2024-01-30T01:31:14;21.30;;;11.57;;
4694;SDS011;2361;49.540;8.390;2024-01-30T01:33:37;21.27;;;11.88;;
4694;SDS011;2361;49.540;8.390;2024-01-30T01:35:59;20.50;;;12.00;;
4694;SDS011;2361;49.540;8.390;2024-01-30T01:38:23;20.58;;;12.20;;
4694;SDS011;2361;49.540;8.390;2024-01-30T01:40:45;22.95;;;12.68;;
4694;SDS011;2361;49.540;8.390;2024-01-30T01:43:07;17.88;;;11.38;;
4694;SDS011;2361;49.540;8.390;2024-01-30T01:45:29;20.88;;;10.90;;
4694;SDS011;2361;49.540;8.390;2024-01-30T01:47:51;18.77;;;10.83;;
4694;SDS011;2361;49.540;8.390;2024-01-30T01:50:15;17.65;;;10.68;;
4694;SDS011;2361;49.540;8.390;2024-01-30T01:52:41;16.98;;;10.10;;
4694;SDS011;2361;49.540;8.390;2024-01-30T01:55:03;16.50;;;9.98;;
4694;SDS011;2361;49.540;8.390;2024-01-30T01:57:25;16.40;;;10.13;;
4694;SDS011;2361;49.540;8.390;2024-01-30T01:59:47;15.10;;;9.15;;
4694;SDS011;2361;49.540;8.390;2024-01-30T02:02:09;15.93;;;9.43;;
4694;SDS011;2361;49.540;8.390;2024-01-30T02:04:34;16.90;;;9.30;;
4694;SDS011;2361;49.540;8.390;2024-01-30T02:06:56;13.88;;;9.32;;
4694;SDS011;2361;49.540;8.390;2024-01-30T02:09:18;14.68;;;8.60;;
4694;SDS011;2361;49.540;8.390;2024-01-30T02:11:40;13.57;;;8.65;;
4694;SDS011;2361;49.540;8.390;2024-01-30T02:14:03;17.42;;;9.93;;
4694;SDS011;2361;49.540;8.390;2024-01-30T02:16:25;13.40;;;8.30;;
4694;SDS011;2361;49.540;8.390;2024-01-30T02:18:48;14.63;;;8.90;;
4694;SDS011;2361;49.540;8.390;2024-01-30T02:21:10;15.88;;;9.43;;
4694;SDS011;2361;49.540;8.390;2024-01-30T02:23:33;15.77;;;10.18;;
4694;SDS011;2361;49.540;8.390;2024-01-30T02:25:56;16.83;;;10.70;;
4694;SDS011;2361;49.540;8.390;2024-01-30T02:28:21;16.95;;;10.10;;
4694;SDS011;2361;49.540;8.390;2024-01-30T02:30:43;20.83;;;11.37;;
4694;SDS011;2361;49.540;8.390;2024-01-30T02:33:05;15.93;;;10.60;;
4694;SDS011;2361;49.540;8.390;2024-01-30T02:35:27;20.85;;;11.90;;
4694;SDS011;2361;49.540;8.390;2024-01-30T02:37:49;21.30;;;11.20;;
4694;SDS011;2361;49.540;8.390;2024-01-30T02:40:11;20.40;;;11.27;;
4694;SDS011;2361;49.540;8.390;2024-01-30T02:42:33;20.23;;;11.90;;
4694;SDS011;2361;49.540;8.390;2024-01-30T02:44:55;18.52;;;11.40;;
4694;SDS011;2361;49.540;8.390;2024-01-30T02:47:17;23.05;;;11.05;;
4694;SDS011;2361;49.540;8.390;2024-01-30T02:49:39;19.80;;;11.60;;
4694;SDS011;2361;49.540;8.390;2024-01-30T02:52:01;18.75;;;11.90;;
4694;SDS011;2361;49.540;8.390;2024-01-30T02:54:24;20.15;;;11.23;;
4694;SDS011;2361;49.540;8.390;2024-01-30T02:56:46;17.88;;;10.20;;
4694;SDS011;2361;49.540;8.390;2024-01-30T02:59:09;20.35;;;11.57;;
4694;SDS011;2361;49.540;8.390;2024-01-30T03:01:31;18.15;;;10.82;;
4694;SDS011;2361;49.540;8.390;2024-01-30T03:03:53;21.52;;;12.05;;
4694;SDS011;2361;49.540;8.390;2024-01-30T03:06:15;20.20;;;11.33;;
4694;SDS011;2361;49.540;8.390;2024-01-30T03:08:39;22.05;;;12.50;;
4694;SDS011;2361;49.540;8.390;2024-01-30T03:11:01;18.33;;;11.20;;
4694;SDS011;2361;49.540;8.390;2024-01-30T03:13:22;20.35;;;12.77;;
4694;SDS011;2361;49.540;8.390;2024-01-30T03:15:46;21.85;;;11.55;;
4694;SDS011;2361;49.540;8.390;2024-01-30T03:18:08;21.15;;;12.35;;
4694;SDS011;2361;49.540;8.390;2024-01-30T03:20:30;22.08;;;12.48;;
4694;SDS011;2361;49.540;8.390;2024-01-30T03:22:53;20.90;;;12.07;;
4694;SDS011;2361;49.540;8.390;2024-01-30T03:25:16;23.02;;;12.32;;
4694;SDS011;2361;49.540;8.390;2024-01-30T03:27:38;20.17;;;12.40;;
4694;SDS011;2361;49.540;8.390;2024-01-30T03:30:00;20.52;;;12.32;;
4694;SDS011;2361;49.540;8.390;2024-01-30T03:32:22;19.60;;;12.10;;
4694;SDS011;2361;49.540;8.390;2024-01-30T03:34:44;20.25;;;11.30;;
4694;SDS011;2361;49.540;8.390;2024-01-30T03:37:07;20.58;;;11.50;;
4694;SDS011;2361;49.540;8.390;2024-01-30T03:39:29;19.10;;;11.65;;
4694;SDS011;2361;49.540;8.390;2024-01-30T03:41:51;18.47;;;10.80;;
4694;SDS011;2361;49.540;8.390;2024-01-30T03:44:13;19.50;;;11.07;;
4694;SDS011;2361;49.540;8.390;2024-01-30T03:46:35;18.23;;;11.38;;
4694;SDS011;2361;49.540;8.390;2024-01-30T03:48:57;21.45;;;11.10;;
4694;SDS011;2361;49.540;8.390;2024-01-30T03:51:19;21.67;;;12.25;;
4694;SDS011;2361;49.540;8.390;2024-01-30T03:53:41;20.50;;;11.90;;
4694;SDS011;2361;49.540;8.390;2024-01-30T03:56:04;22.90;;;11.77;;
4694;SDS011;2361;49.540;8.390;2024-01-30T03:58:26;19.30;;;11.52;;
4694;SDS011;2361;49.540;8.390;2024-01-30T04:00:48;20.95;;;11.90;;
4694;SDS011;2361;49.540;8.390;2024-01-30T04:03:10;19.95;;;11.93;;
4694;SDS011;2361;49.540;8.390;2024-01-30T04:05:33;20.75;;;11.98;;
4694;SDS011;2361;49.540;8.390;2024-01-30T04:07:55;19.80;;;11.57;;
4694;SDS011;2361;49.540;8.390;2024-01-30T04:10:17;22.85;;;12.20;;
4694;SDS011;2361;49.540;8.390;2024-01-30T04:12:39;20.75;;;11.90;;
4694;SDS011;2361;49.540;8.390;2024-01-30T04:15:01;19.08;;;12.20;;
4694;SDS011;2361;49.540;8.390;2024-01-30T04:17:25;19.13;;;12.20;;
4694;SDS011;2361;49.540;8.390;2024-01-30T04:19:47;22.60;;;12.63;;
4694;SDS011;2361;49.540;8.390;2024-01-30T04:22:09;20.92;;;12.65;;
4694;SDS011;2361;49.540;8.390;2024-01-30T04:24:31;20.25;;;12.10;;
4694;SDS011;2361;49.540;8.390;2024-01-30T04:26:53;20.85;;;11.60;;
4694;SDS011;2361;49.540;8.390;2024-01-30T04:29:15;21.88;;;12.30;;
4694;SDS011;2361;49.540;8.390;2024-01-30T04:31:36;22.48;;;11.98;;
4694;SDS011;2361;49.540;8.390;2024-01-30T04:33:58;20.73;;;11.68;;
4694;SDS011;2361;49.540;8.390;2024-01-30T04:36:21;17.73;;;11.27;;
4694;SDS011;2361;49.540;8.390;2024-01-30T04:38:42;18.55;;;10.77;;
4694;SDS011;2361;49.540;8.390;2024-01-30T04:41:04;20.90;;;11.57;;
4694;SDS011;2361;49.540;8.390;2024-01-30T04:43:26;17.90;;;11.10;;
4694;SDS011;2361;49.540;8.390;2024-01-30T04:45:49;16.87;;;10.40;;
4694;SDS011;2361;49.540;8.390;2024-01-30T04:48:11;21.73;;;11.45;;
4694;SDS011;2361;49.540;8.390;2024-01-30T04:50:33;19.92;;;10.82;;
4694;SDS011;2361;49.540;8.390;2024-01-30T04:52:55;19.45;;;10.50;;
4694;SDS011;2361;49.540;8.390;2024-01-30T04:55:17;17.52;;;10.48;;
4694;SDS011;2361;49.540;8.390;2024-01-30T04:57:42;18.50;;;10.45;;
4694;SDS011;2361;49.540;8.390;2024-01-30T05:00:04;18.98;;;10.90;;
4694;SDS011;2361;49.540;8.390;2024-01-30T05:02:27;16.03;;;10.23;;
4694;SDS011;2361;49.540;8.390;2024-01-30T05:04:49;15.15;;;10.15;;
4694;SDS011;2361;49.540;8.390;2024-01-30T05:07:11;16.17;;;9.68;;
4694;SDS011;2361;49.540;8.390;2024-01-30T05:09:33;13.80;;;9.43;;
4694;SDS011;2361;49.540;8.390;2024-01-30T05:11:55;14.40;;;9.00;;
4694;SDS011;2361;49.540;8.390;2024-01-30T05:14:17;15.80;;;9.90;;
4694;SDS011;2361;49.540;8.390;2024-01-30T05:16:39;16.15;;;9.57;;
4694;SDS011;2361;49.540;8.390;2024-01-30T05:19:01;14.15;;;9.35;;
4694;SDS011;2361;49.540;8.390;2024-01-30T05:21:24;16.98;;;9.88;;
4694;SDS011;2361;49.540;8.390;2024-01-30T05:23:46;15.63;;;9.47;;
4694;SDS011;2361;49.540;8.390;2024-01-30T05:26:08;14.05;;;8.60;;
4694;SDS011;2361;49.540;8.390;2024-01-30T05:28:30;13.23;;;8.80;;
4694;SDS011;2361;49.540;8.390;2024-01-30T05:30:52;14.20;;;9.15;;
4694;SDS011;2361;49.540;8.390;2024-01-30T05:33:14;12.88;;;8.30;;
4694;SDS011;2361;49.540;8.390;2024-01-30T05:35:36;14.15;;;8.05;;
4694;SDS011;2361;49.540;8.390;2024-01-30T05:37:58;15.38;;;7.70;;
4694;SDS011;2361;49.540;8.390;2024-01-30T05:40:20;12.07;;;7.40;;
4694;SDS011;2361;49.540;8.390;2024-01-30T05:42:42;13.52;;;8.00;;
4694;SDS011;2361;49.540;8.390;2024-01-30T05:45:04;14.27;;;8.05;;
4694;SDS011;2361;49.540;8.390;2024-01-30T05:47:26;13.60;;;8.15;;
4694;SDS011;2361;49.540;8.390;2024-01-30T05:49:48;12.52;;;7.47;;
4694;SDS011;2361;49.540;8.390;2024-01-30T05:52:10;12.65;;;7.68;;
4694;SDS011;2361;49.540;8.390;2024-01-30T05:54:32;11.50;;;6.93;;
4694;SDS011;2361;49.540;8.390;2024-01-30T05:56:55;11.93;;;7.50;;
4694;SDS011;2361;49.540;8.390;2024-01-30T05:59:16;13.13;;;7.80;;
4694;SDS011;2361;49.540;8.390;2024-01-30T06:01:44;13.35;;;7.68;;
4694;SDS011;2361;49.540;8.390;2024-01-30T06:04:08;12.18;;;7.60;;
4694;SDS011;2361;49.540;8.390;2024-01-30T06:06:30;11.07;;;7.20;;
4694;SDS011;2361;49.540;8.390;2024-01-30T06:08:52;10.43;;;7.15;;
4694;SDS011;2361;49.540;8.390;2024-01-30T06:11:16;10.68;;;7.10;;
4694;SDS011;2361;49.540;8.390;2024-01-30T06:13:38;10.20;;;7.47;;
4694;SDS011;2361;49.540;8.390;2024-01-30T06:16:00;11.77;;;6.97;;
4694;SDS011;2361;49.540;8.390;2024-01-30T06:18:22;10.95;;;6.97;;
4694;SDS011;2361;49.540;8.390;2024-01-30T06:20:44;12.70;;;7.18;;
4694;SDS011;2361;49.540;8.390;2024-01-30T06:23:05;10.77;;;6.50;;
4694;SDS011;2361;49.540;8.390;2024-01-30T06:25:27;11.48;;;7.03;;
4694;SDS011;2361;49.540;8.390;2024-01-30T06:27:50;13.48;;;7.85;;
4694;SDS011;2361;49.540;8.390;2024-01-30T06:30:12;13.38;;;7.32;;
4694;SDS011;2361;49.540;8.390;2024-01-30T06:32:35;13.68;;;7.15;;
4694;SDS011;2361;49.540;8.390;2024-01-30T06:34:57;11.07;;;7.22;;
4694;SDS011;2361;49.540;8.390;2024-01-30T06:37:19;10.70;;;7.10;;
4694;SDS011;2361;49.540;8.390;2024-01-30T06:39:41;11.68;;;7.20;;
4694;SDS011;2361;49.540;8.390;2024-01-30T06:42:03;10.38;;;7.10;;
4694;SDS011;2361;49.540;8.390;2024-01-30T06:44:26;11.20;;;7.40;;
4694;SDS011;2361;49.540;8.390;2024-01-30T06:46:50;13.05;;;7.55;;
4694;SDS011;2361;49.540;8.390;2024-01-30T06:49:12;13.98;;;7.70;;
4694;SDS011;2361;49.540;8.390;2024-01-30T06:51:34;10.45;;;7.30;;
4694;SDS011;2361;49.540;8.390;2024-01-30T06:53:56;11.40;;;7.75;;
4694;SDS011;2361;49.540;8.390;2024-01-30T06:56:18;12.50;;;7.68;;
4694;SDS011;2361;49.540;8.390;2024-01-30T06:58:42;12.18;;;7.70;;
4694;SDS011;2361;49.540;8.390;2024-01-30T07:01:04;12.75;;;7.63;;
4694;SDS011;2361;49.540;8.390;2024-01-30T07:03:26;11.20;;;7.40;;
4694;SDS011;2361;49.540;8.390;2024-01-30T07:05:48;12.25;;;7.20;;
4694;SDS011;2361;49.540;8.390;2024-01-30T07:08:10;10.80;;;7.00;;
4694;SDS011;2361;49.540;8.390;2024-01-30T07:10:31;10.75;;;6.70;;
4694;SDS011;2361;49.540;8.390;2024-01-30T07:12:54;12.85;;;7.50;;
4694;SDS011;2361;49.540;8.390;2024-01-30T07:15:16;12.88;;;7.63;;
4694;SDS011;2361;49.540;8.390;2024-01-30T07:17:40;13.55;;;7.60;;
4694;SDS011;2361;49.540;8.390;2024-01-30T07:20:02;13.97;;;7.70;;
4694;SDS011;2361;49.540;8.390;2024-01-30T07:22:26;12.80;;;7.80;;
4694;SDS011;2361;49.540;8.390;2024-01-30T07:24:48;11.20;;;7.40;;
4694;SDS011;2361;49.540;8.390;2024-01-30T07:27:11;12.10;;;7.50;;
4694;SDS011;2361;49.540;8.390;2024-01-30T07:29:32;14.68;;;8.10;;
4694;SDS011;2361;49.540;8.390;2024-01-30T07:31:54;13.15;;;7.95;;
4694;SDS011;2361;49.540;8.390;2024-01-30T07:34:16;13.60;;;8.02;;
4694;SDS011;2361;49.540;8.390;2024-01-30T07:36:38;13.98;;;7.90;;
4694;SDS011;2361;49.540;8.390;2024-01-30T07:39:00;15.55;;;8.40;;
4694;SDS011;2361;49.540;8.390;2024-01-30T07:41:22;15.27;;;8.45;;
4694;SDS011;2361;49.540;8.390;2024-01-30T07:43:46;13.63;;;7.82;;
4694;SDS011;2361;49.540;8.390;2024-01-30T07:46:08;14.25;;;8.52;;
4694;SDS011;2361;49.540;8.390;2024-01-30T07:48:30;13.80;;;7.90;;
4694;SDS011;2361;49.540;8.390;2024-01-30T07:50:52;12.20;;;8.20;;
4694;SDS011;2361;49.540;8.390;2024-01-30T07:53:14;13.90;;;8.10;;
4694;SDS011;2361;49.540;8.390;2024-01-30T07:55:36;13.23;;;8.25;;
4694;SDS011;2361;49.540;8.390;2024-01-30T07:57:58;13.63;;;8.88;;
4694;SDS011;2361;49.540;8.390;2024-01-30T08:00:20;13.93;;;8.40;;
4694;SDS011;2361;49.540;8.390;2024-01-30T08:02:43;13.45;;;7.70;;
4694;SDS011;2361;49.540;8.390;2024-01-30T08:05:05;13.60;;;8.30;;
4694;SDS011;2361;49.540;8.390;2024-01-30T08:07:27;13.40;;;8.07;;
4694;SDS011;2361;49.540;8.390;2024-01-30T08:09:50;14.25;;;7.95;;
4694;SDS011;2361;49.540;8.390;2024-01-30T08:12:12;11.37;;;7.30;;
4694;SDS011;2361;49.540;8.390;2024-01-30T08:14:35;12.98;;;7.90;;
4694;SDS011;2361;49.540;8.390;2024-01-30T08:16:56;12.00;;;7.90;;
4694;SDS011;2361;49.540;8.390;2024-01-30T08:19:18;14.30;;;8.07;;
4694;SDS011;2361;49.540;8.390;2024-01-30T08:21:40;13.55;;;8.00;;
4694;SDS011;2361;49.540;8.390;2024-01-30T08:24:03;13.73;;;8.15;;
4694;SDS011;2361;49.540;8.390;2024-01-30T08:26:25;12.93;;;8.45;;
4694;SDS011;2361;49.540;8.390;2024-01-30T08:28:47;13.70;;;8.07;;
4694;SDS011;2361;49.540;8.390;2024-01-30T08:31:10;13.50;;;8.00;;
4694;SDS011;2361;49.540;8.390;2024-01-30T08:33:33;13.40;;;8.55;;
4694;SDS011;2361;49.540;8.390;2024-01-30T08:35:55;13.73;;;8.30;;
4694;SDS011;2361;49.540;8.390;2024-01-30T08:38:17;14.50;;;9.02;;
4694;SDS011;2361;49.540;8.390;2024-01-30T08:40:39;15.82;;;8.80;;
4694;SDS011;2361;49.540;8.390;2024-01-30T08:43:01;14.18;;;8.60;;
4694;SDS011;2361;49.540;8.390;2024-01-30T08:45:23;12.57;;;8.35;;
4694;SDS011;2361;49.540;8.390;2024-01-30T08:47:45;13.38;;;8.70;;
4694;SDS011;2361;49.540;8.390;2024-01-30T08:50:07;16.25;;;8.60;;
4694;SDS011;2361;49.540;8.390;2024-01-30T08:52:30;13.73;;;8.73;;
4694;SDS011;2361;49.540;8.390;2024-01-30T08:54:52;14.98;;;8.90;;
4694;SDS011;2361;49.540;8.390;2024-01-30T08:57:13;14.90;;;8.13;;
4694;SDS011;2361;49.540;8.390;2024-01-30T08:59:35;13.40;;;8.15;;
4694;SDS011;2361;49.540;8.390;2024-01-30T09:01:57;17.13;;;8.90;;
4694;SDS011;2361;49.540;8.390;2024-01-30T09:04:32;15.98;;;8.90;;
4694;SDS011;2361;49.540;8.390;2024-01-30T09:06:54;14.20;;;8.38;;
4694;SDS011;2361;49.540;8.390;2024-01-30T09:09:16;14.57;;;9.27;;
4694;SDS011;2361;49.540;8.390;2024-01-30T09:11:38;15.55;;;9.07;;
4694;SDS011;2361;49.540;8.390;2024-01-30T09:14:00;18.85;;;10.38;;
4694;SDS011;2361;49.540;8.390;2024-01-30T09:16:22;18.00;;;10.05;;
4694;SDS011;2361;49.540;8.390;2024-01-30T09:18:44;17.40;;;10.15;;
4694;SDS011;2361;49.540;8.390;2024-01-30T09:21:06;18.98;;;10.10;;
4694;SDS011;2361;49.540;8.390;2024-01-30T09:23:28;18.38;;;9.88;;
4694;SDS011;2361;49.540;8.390;2024-01-30T09:25:50;17.85;;;10.10;;
4694;SDS011;2361;49.540;8.390;2024-01-30T09:28:12;20.63;;;9.38;;
4694;SDS011;2361;49.540;8.390;2024-01-30T09:30:34;16.17;;;9.82;;
4694;SDS011;2361;49.540;8.390;2024-01-30T09:32:56;15.90;;;9.88;;
4694;SDS011;2361;49.540;8.390;2024-01-30T09:35:19;16.93;;;9.50;;
4694;SDS011;2361;49.540;8.390;2024-01-30T09:37:41;15.63;;;9.60;;
4694;SDS011;2361;49.540;8.390;2024-01-30T09:40:03;16.15;;;9.60;;
4694;SDS011;2361;49.540;8.390;2024-01-30T09:42:28;18.30;;;9.60;;
4694;SDS011;2361;49.540;8.390;2024-01-30T09:45:00;19.15;;;10.43;;
4694;SDS011;2361;49.540;8.390;2024-01-30T09:47:24;18.57;;;10.00;;
4694;SDS011;2361;49.540;8.390;2024-01-30T09:49:47;18.67;;;10.30;;
4694;SDS011;2361;49.540;8.390;2024-01-30T09:52:10;16.33;;;9.95;;
4694;SDS011;2361;49.540;8.390;2024-01-30T09:54:33;18.42;;;10.50;;
4694;SDS011;2361;49.540;8.390;2024-01-30T09:56:58;16.38;;;10.38;;
4694;SDS011;2361;49.540;8.390;2024-01-30T09:59:20;15.50;;;9.60;;
4694;SDS011;2361;49.540;8.390;2024-01-30T10:01:42;15.32;;;9.45;;
4694;SDS011;2361;49.540;8.390;2024-01-30T10:04:05;14.88;;;9.40;;
4694;SDS011;2361;49.540;8.390;2024-01-30T10:06:28;15.77;;;9.70;;
4694;SDS011;2361;49.540;8.390;2024-01-30T10:08:50;15.02;;;8.80;;
4694;SDS011;2361;49.540;8.390;2024-01-30T10:11:14;16.03;;;9.23;;
4694;SDS011;2361;49.540;8.390;2024-01-30T10:13:36;16.63;;;9.07;;
4694;SDS011;2361;49.540;8.390;2024-01-30T10:16:00;17.08;;;9.20;;
4694;SDS011;2361;49.540;8.390;2024-01-30T10:18:24;14.95;;;9.40;;
4694;SDS011;2361;49.540;8.390;2024-01-30T10:20:46;16.80;;;9.80;;
4694;SDS011;2361;49.540;8.390;2024-01-30T10:23:08;15.80;;;10.40;;
4694;SDS011;2361;49.540;8.390;2024-01-30T10:25:30;20.90;;;11.10;;
4694;SDS011;2361;49.540;8.390;2024-01-30T10:27:53;18.60;;;10.77;;
4694;SDS011;2361;49.540;8.390;2024-01-30T10:30:16;17.85;;;10.70;;
4694;SDS011;2361;49.540;8.390;2024-01-30T10:32:38;17.02;;;10.60;;
4694;SDS011;2361;49.540;8.390;2024-01-30T10:35:00;15.53;;;9.90;;
4694;SDS011;2361;49.540;8.390;2024-01-30T10:37:24;16.50;;;10.20;;
4694;SDS011;2361;49.540;8.390;2024-01-30T10:39:47;16.48;;;10.23;;
4694;SDS011;2361;49.540;8.390;2024-01-30T10:42:13;16.65;;;9.75;;
4694;SDS011;2361;49.540;8.390;2024-01-30T10:44:43;15.83;;;9.97;;
4694;SDS011;2361;49.540;8.390;2024-01-30T10:47:26;16.47;;;9.60;;
4694;SDS011;2361;49.540;8.390;2024-01-30T10:49:51;13.73;;;9.23;;
4694;SDS011;2361;49.540;8.390;2024-01-30T10:52:15;15.23;;;9.48;;
4694;SDS011;2361;49.540;8.390;2024-01-30T10:54:38;17.30;;;10.50;;
4694;SDS011;2361;49.540;8.390;2024-01-30T10:57:02;16.35;;;9.48;;
4694;SDS011;2361;49.540;8.390;2024-01-30T10:59:25;13.18;;;9.00;;
4694;SDS011;2361;49.540;8.390;2024-01-30T11:01:49;16.25;;;10.30;;
4694;SDS011;2361;49.540;8.390;2024-01-30T11:04:12;15.18;;;9.13;;
4694;SDS011;2361;49.540;8.390;2024-01-30T11:06:40;17.17;;;9.82;;
4694;SDS011;2361;49.540;8.390;2024-01-30T11:09:04;19.50;;;10.00;;
4694;SDS011;2361;49.540;8.390;2024-01-30T11:11:31;13.90;;;9.23;;
4694;SDS011;2361;49.540;8.390;2024-01-30T11:13:53;15.65;;;9.82;;
4694;SDS011;2361;49.540;8.390;2024-01-30T11:16:15;15.77;;;9.70;;
4694;SDS011;2361;49.540;8.390;2024-01-30T11:18:37;13.85;;;9.20;;
4694;SDS011;2361;49.540;8.390;2024-01-30T11:20:59;20.50;;;10.10;;
4694;SDS011;2361;49.540;8.390;2024-01-30T11:23:25;13.05;;;9.02;;
4694;SDS011;2361;49.540;8.390;2024-01-30T11:25:48;14.07;;;8.73;;
4694;SDS011;2361;49.540;8.390;2024-01-30T11:28:16;19.75;;;9.40;;
4694;SDS011;2361;49.540;8.390;2024-01-30T11:30:38;15.80;;;8.48;;
4694;SDS011;2361;49.540;8.390;2024-01-30T11:33:07;18.10;;;8.90;;
4694;SDS011;2361;49.540;8.390;2024-01-30T11:35:34;16.00;;;8.40;;
4694;SDS011;2361;49.540;8.390;2024-01-30T11:38:05;17.10;;;9.70;;
4694;SDS011;2361;49.540;8.390;2024-01-30T11:40:31;13.02;;;8.80;;
4694;SDS011;2361;49.540;8.390;2024-01-30T11:42:55;15.07;;;9.00;;
4694;SDS011;2361;49.540;8.390;2024-01-30T11:45:19;14.55;;;8.90;;
4694;SDS011;2361;49.540;8.390;2024-01-30T11:47:41;13.68;;;9.13;;
4694;SDS011;2361;49.540;8.390;2024-01-30T11:50:05;16.70;;;9.52;;
4694;SDS011;2361;49.540;8.390;2024-01-30T11:52:27;17.83;;;9.30;;
4694;SDS011;2361;49.540;8.390;2024-01-30T11:54:50;14.90;;;8.70;;
4694;SDS011;2361;49.540;8.390;2024-01-30T11:57:12;15.93;;;9.32;;
4694;SDS011;2361;49.540;8.390;2024-01-30T11:59:34;15.23;;;9.10;;
4694;SDS011;2361;49.540;8.390;2024-01-30T12:01:56;14.40;;;7.90;;
4694;SDS011;2361;49.540;8.390;2024-01-30T12:04:18;13.33;;;8.90;;
4694;SDS011;2361;49.540;8.390;2024-01-30T12:06:40;17.38;;;9.35;;
4694;SDS011;2361;49.540;8.390;2024-01-30T12:09:02;14.43;;;9.02;;
4694;SDS011;2361;49.540;8.390;2024-01-30T12:11:31;13.93;;;8.23;;
4694;SDS011;2361;49.540;8.390;2024-01-30T12:13:53;12.85;;;7.72;;
4694;SDS011;2361;49.540;8.390;2024-01-30T12:16:15;14.75;;;8.70;;
4694;SDS011;2361;49.540;8.390;2024-01-30T12:18:37;13.75;;;8.40;;
4694;SDS011;2361;49.540;8.390;2024-01-30T12:20:59;16.15;;;8.80;;
4694;SDS011;2361;49.540;8.390;2024-01-30T12:23:22;14.82;;;8.63;;
4694;SDS011;2361;49.540;8.390;2024-01-30T12:25:46;13.45;;;8.80;;
4694;SDS011;2361;49.540;8.390;2024-01-30T12:28:08;14.55;;;9.07;;
4694;SDS011;2361;49.540;8.390;2024-01-30T12:30:34;14.20;;;8.90;;
4694;SDS011;2361;49.540;8.390;2024-01-30T12:32:56;18.27;;;9.80;;
4694;SDS011;2361;49.540;8.390;2024-01-30T12:35:19;15.32;;;9.68;;
4694;SDS011;2361;49.540;8.390;2024-01-30T12:37:43;13.70;;;8.70;;
4694;SDS011;2361;49.540;8.390;2024-01-30T12:40:09;15.88;;;8.90;;
4694;SDS011;2361;49.540;8.390;2024-01-30T12:42:35;14.68;;;7.95;;
4694;SDS011;2361;49.540;8.390;2024-01-30T12:44:57;14.50;;;8.20;;
4694;SDS011;2361;49.540;8.390;2024-01-30T12:47:23;12.93;;;8.40;;
4694;SDS011;2361;49.540;8.390;2024-01-30T12:49:45;13.50;;;8.07;;
4694;SDS011;2361;49.540;8.390;2024-01-30T12:52:07;11.65;;;7.85;;
4694;SDS011;2361;49.540;8.390;2024-01-30T12:54:29;12.18;;;7.80;;
4694;SDS011;2361;49.540;8.390;2024-01-30T12:56:51;12.50;;;7.93;;
4694;SDS011;2361;49.540;8.390;2024-01-30T12:59:13;13.60;;;7.90;;
4694;SDS011;2361;49.540;8.390;2024-01-30T13:01:35;13.90;;;7.47;;
4694;SDS011;2361;49.540;8.390;2024-01-30T13:03:57;11.00;;;7.50;;
4694;SDS011;2361;49.540;8.390;2024-01-30T13:06:20;11.55;;;7.47;;
4694;SDS011;2361;49.540;8.390;2024-01-30T13:08:42;12.45;;;7.38;;
4694;SDS011;2361;49.540;8.390;2024-01-30T13:11:04;13.00;;;7.65;;
4694;SDS011;2361;49.540;8.390;2024-01-30T13:13:26;12.63;;;7.75;;
4694;SDS011;2361;49.540;8.390;2024-01-30T13:15:48;12.38;;;7.50;;
4694;SDS011;2361;49.540;8.390;2024-01-30T13:18:10;13.77;;;7.90;;
4694;SDS011;2361;49.540;8.390;2024-01-30T13:20:32;10.70;;;7.00;;
4694;SDS011;2361;49.540;8.390;2024-01-30T13:22:54;12.10;;;7.60;;
4694;SDS011;2361;49.540;8.390;2024-01-30T13:25:17;11.83;;;7.40;;
4694;SDS011;2361;49.540;8.390;2024-01-30T13:27:39;12.63;;;7.30;;
4694;SDS011;2361;49.540;8.390;2024-01-30T13:30:01;10.60;;;7.05;;
4694;SDS011;2361;49.540;8.390;2024-01-30T13:32:23;10.15;;;7.40;;
4694;SDS011;2361;49.540;8.390;2024-01-30T13:34:44;12.93;;;6.60;;
4694;SDS011;2361;49.540;8.390;2024-01-30T13:37:06;10.52;;;7.03;;
4694;SDS011;2361;49.540;8.390;2024-01-30T13:39:28;10.18;;;6.70;;
4694;SDS011;2361;49.540;8.390;2024-01-30T13:41:56;9.15;;;6.30;;
4694;SDS011;2361;49.540;8.390;2024-01-30T13:44:18;9.35;;;6.63;;
4694;SDS011;2361;49.540;8.390;2024-01-30T13:46:42;8.15;;;5.72;;
4694;SDS011;2361;49.540;8.390;2024-01-30T13:49:04;9.68;;;6.50;;
4694;SDS011;2361;49.540;8.390;2024-01-30T13:51:26;9.38;;;5.90;;
4694;SDS011;2361;49.540;8.390;2024-01-30T13:53:49;9.57;;;5.80;;
4694;SDS011;2361;49.540;8.390;2024-01-30T13:56:11;9.77;;;6.25;;
4694;SDS011;2361;49.540;8.390;2024-01-30T13:58:33;9.35;;;6.20;;
4694;SDS011;2361;49.540;8.390;2024-01-30T14:00:57;9.05;;;6.53;;
4694;SDS011;2361;49.540;8.390;2024-01-30T14:03:19;9.73;;;6.85;;
4694;SDS011;2361;49.540;8.390;2024-01-30T14:05:41;11.82;;;7.10;;
4694;SDS011;2361;49.540;8.390;2024-01-30T14:08:03;11.88;;;7.60;;
4694;SDS011;2361;49.540;8.390;2024-01-30T14:10:26;12.77;;;7.20;;
4694;SDS011;2361;49.540;8.390;2024-01-30T14:12:48;11.48;;;7.50;;
4694;SDS011;2361;49.540;8.390;2024-01-30T14:15:11;12.93;;;8.10;;
4694;SDS011;2361;49.540;8.390;2024-01-30T14:17:47;11.77;;;7.50;;
4694;SDS011;2361;49.540;8.390;2024-01-30T14:20:11;10.77;;;6.60;;
4694;SDS011;2361;49.540;8.390;2024-01-30T14:22:33;10.05;;;6.70;;
4694;SDS011;2361;49.540;8.390;2024-01-30T14:24:55;10.10;;;6.80;;
4694;SDS011;2361;49.540;8.390;2024-01-30T14:27:17;10.73;;;6.43;;